createdAt,value
2023-04-12T00:01:22.171Z,6.31
2023-04-12T00:06:27.750Z,6.29
2023-04-12T00:11:32.233Z,6.26
2023-04-12T00:16:36.294Z,6.19
2023-04-12T00:21:39.025Z,5.96
2023-04-12T00:26:41.699Z,6.10
2023-04-12T00:31:44.388Z,5.91
2023-04-12T00:36:47.118Z,6.10
2023-04-12T00:41:49.857Z,6.01
2023-04-12T00:46:52.582Z,5.99
2023-04-12T00:51:55.503Z,5.84
2023-04-12T00:57:00.038Z,5.68
2023-04-12T01:02:03.389Z,5.59
2023-04-12T01:07:21.692Z,5.64
2023-04-12T01:12:39.351Z,5.65
2023-04-12T01:18:02.956Z,5.61
2023-04-12T01:23:43.060Z,5.51
2023-04-12T01:28:47.052Z,5.43
2023-04-12T01:33:52.090Z,5.21
2023-04-12T01:38:55.837Z,4.96
2023-04-12T01:43:58.644Z,4.63
2023-04-12T01:49:03.422Z,4.54
2023-04-12T01:54:13.701Z,4.56
2023-04-12T01:59:17.999Z,4.36
2023-04-12T02:04:22.093Z,4.38
2023-04-12T02:09:24.783Z,4.36
2023-04-12T02:14:27.707Z,4.29
2023-04-12T02:19:30.617Z,4.32
2023-04-12T02:24:33.792Z,4.42
2023-04-12T02:29:36.356Z,4.44
2023-04-12T02:34:40.085Z,4.54
2023-04-12T02:39:57.088Z,4.57
2023-04-12T02:45:01.324Z,4.55
2023-04-12T02:50:05.015Z,4.53
2023-04-12T02:55:13.270Z,4.68
2023-04-12T03:00:16.946Z,5.00
2023-04-12T03:05:23.295Z,5.15
2023-04-12T03:10:27.327Z,5.29
2023-04-12T03:15:39.844Z,5.85
2023-04-12T03:20:46.015Z,6.30
2023-04-12T03:25:50.936Z,6.61
2023-04-12T03:31:13.791Z,6.97
2023-04-12T03:36:24.273Z,7.07
2023-04-12T03:41:46.661Z,7.30
2023-04-12T03:46:50.527Z,7.63
2023-04-12T03:51:53.549Z,7.91
2023-04-12T03:56:56.862Z,8.00
2023-04-12T04:02:27.954Z,8.08
2023-04-12T04:07:33.535Z,8.17
2023-04-12T04:12:36.226Z,8.25
2023-04-12T04:17:40.467Z,8.69
2023-04-12T04:22:44.782Z,9.02
2023-04-12T04:27:49.642Z,9.36
2023-04-12T04:32:53.020Z,9.61
2023-04-12T04:37:59.019Z,9.84
2023-04-12T04:43:03.189Z,10.23
2023-04-12T04:48:11.788Z,10.63
2023-04-12T04:53:16.547Z,10.98
2023-04-12T04:58:19.300Z,11.32
2023-04-12T05:03:22.071Z,11.62
2023-04-12T05:08:25.267Z,11.93
2023-04-12T05:13:27.932Z,12.17
2023-04-12T05:18:30.702Z,12.62
2023-04-12T05:23:42.860Z,12.82
2023-04-12T05:28:47.721Z,13.02
2023-04-12T05:33:51.080Z,13.07
2023-04-12T05:38:54.886Z,13.15
2023-04-12T05:43:57.742Z,13.22
2023-04-12T05:49:00.729Z,13.57
2023-04-12T05:54:07.617Z,13.89
2023-04-12T05:59:12.530Z,14.09
2023-04-12T06:04:15.554Z,14.38
2023-04-12T06:09:19.365Z,14.60
2023-04-12T06:14:21.991Z,14.77
2023-04-12T06:19:24.668Z,14.87
2023-04-12T06:24:27.265Z,14.80
2023-04-12T06:29:30.578Z,15.07
2023-04-12T06:34:34.852Z,15.26
2023-04-12T06:39:42.818Z,15.29
2023-04-12T06:44:45.767Z,15.51
2023-04-12T06:49:48.555Z,15.67
2023-04-12T06:54:51.171Z,15.98
2023-04-12T06:59:53.775Z,16.02
2023-04-12T07:04:56.397Z,16.20
2023-04-12T07:10:00.481Z,16.21
2023-04-12T07:15:03.234Z,16.26
2023-04-12T07:20:06.189Z,16.38
2023-04-12T07:25:10.922Z,16.65
2023-04-12T07:30:14.555Z,16.85
2023-04-12T07:35:17.260Z,16.93
2023-04-12T07:40:20.562Z,16.88
2023-04-12T07:45:23.317Z,17.26
2023-04-12T07:50:26.104Z,17.15
2023-04-12T07:55:28.734Z,17.16
2023-04-12T08:00:32.689Z,17.19
2023-04-12T08:05:35.383Z,17.18
2023-04-12T08:10:40.583Z,17.24
2023-04-12T08:15:47.662Z,17.45
2023-04-12T08:20:50.694Z,17.37
2023-04-12T08:26:00.124Z,17.27
2023-04-12T08:31:03.049Z,17.52
2023-04-12T08:36:06.271Z,17.41
2023-04-12T08:41:08.936Z,17.22
2023-04-12T08:46:15.992Z,16.76
2023-04-12T08:51:20.233Z,16.54
2023-04-12T08:56:24.054Z,17.26
2023-04-12T09:01:27.278Z,17.28
2023-04-12T09:06:30.050Z,17.71
2023-04-12T09:11:32.830Z,17.74
2023-04-12T09:16:36.291Z,17.96
2023-04-12T09:21:53.370Z,17.98
2023-04-12T09:27:06.487Z,17.60
2023-04-12T09:32:09.944Z,16.91
2023-04-12T09:37:18.275Z,17.27
2023-04-12T09:47:42.014Z,17.39
2023-04-12T09:52:44.958Z,17.16
2023-04-12T09:57:51.098Z,17.07
2023-04-12T10:02:55.926Z,17.01
2023-04-12T10:07:59.037Z,17.11
2023-04-12T10:13:06.906Z,17.45
2023-04-12T10:18:11.866Z,17.68
2023-04-12T10:23:14.837Z,17.78
2023-04-12T10:28:21.774Z,17.97
2023-04-12T10:33:30.903Z,17.70
2023-04-12T10:38:48.849Z,17.62
2023-04-12T10:44:28.917Z,17.58
2023-04-12T10:49:32.475Z,17.62
2023-04-12T10:54:36.004Z,17.14
2023-04-12T10:59:57.513Z,17.15
2023-04-12T11:05:10.943Z,16.97
2023-04-12T11:10:47.113Z,17.08
2023-04-12T11:16:06.884Z,17.33
2023-04-12T11:21:10.540Z,16.95
2023-04-12T11:26:13.424Z,16.74
2023-04-12T11:31:20.460Z,16.94
2023-04-12T11:36:23.185Z,17.10
2023-04-12T11:41:26.039Z,17.33
2023-04-12T11:46:34.359Z,17.73
2023-04-12T11:51:36.993Z,17.30
2023-04-12T11:56:40.450Z,17.60
2023-04-12T12:01:43.189Z,17.58
2023-04-12T12:06:47.341Z,17.40
2023-04-12T12:11:51.441Z,17.12
2023-04-12T12:16:59.538Z,17.39
2023-04-12T12:22:13.033Z,17.83
2023-04-12T12:27:23.479Z,17.58
2023-04-12T12:32:27.403Z,17.60
2023-04-12T12:37:31.164Z,17.50
2023-04-12T12:42:36.685Z,17.49
2023-04-12T12:47:52.062Z,17.27
2023-04-12T12:52:56.173Z,17.38
2023-04-12T12:58:06.604Z,17.24
2023-04-12T13:03:10.380Z,16.95
2023-04-12T13:08:13.095Z,16.56
2023-04-12T13:13:15.834Z,17.05
2023-04-12T13:18:18.582Z,17.36
2023-04-12T13:23:21.237Z,17.50
2023-04-12T13:28:23.902Z,17.53
2023-04-12T13:33:27.219Z,17.33
2023-04-12T13:38:31.387Z,17.33
2023-04-12T13:43:34.063Z,17.24
2023-04-12T13:48:37.495Z,17.17
2023-04-12T13:53:40.139Z,16.83
2023-04-12T13:58:43.298Z,16.86
2023-04-12T14:03:46.054Z,16.63
2023-04-12T14:08:48.661Z,16.80
2023-04-12T14:13:51.532Z,16.53
2023-04-12T14:18:54.138Z,16.53
2023-04-12T14:23:57.529Z,16.64
2023-04-12T14:29:00.714Z,16.49
2023-04-12T14:34:04.298Z,16.39
2023-04-12T14:39:10.440Z,16.23
2023-04-12T14:44:13.603Z,16.25
2023-04-12T14:49:16.268Z,16.37
2023-04-12T14:54:19.068Z,16.27
2023-04-12T14:59:21.838Z,16.16
2023-04-12T15:04:24.781Z,16.14
2023-04-12T15:09:28.797Z,16.05
2023-04-12T15:14:31.571Z,15.89
2023-04-12T15:19:34.202Z,15.91
2023-04-12T15:24:37.155Z,15.81
2023-04-12T15:29:40.065Z,15.59
2023-04-12T15:34:42.732Z,15.65
2023-04-12T15:39:45.741Z,15.63
2023-04-12T15:44:48.296Z,15.53
2023-04-12T15:49:51.459Z,15.39
2023-04-12T15:54:54.104Z,15.23
2023-04-12T15:59:59.506Z,15.05
2023-04-12T16:05:02.315Z,15.00
2023-04-12T16:10:06.493Z,14.65
2023-04-12T16:15:09.401Z,14.66
2023-04-12T16:20:13.523Z,14.41
2023-04-12T16:25:20.034Z,14.20
2023-04-12T16:30:23.106Z,14.17
2023-04-12T16:35:25.964Z,13.97
2023-04-12T16:40:28.883Z,13.86
2023-04-12T16:45:32.145Z,13.78
2023-04-12T16:50:34.783Z,13.62
2023-04-12T16:55:44.575Z,13.61
2023-04-12T17:00:47.203Z,13.15
2023-04-12T17:05:50.701Z,13.30
2023-04-12T17:10:54.556Z,13.11
2023-04-12T17:15:57.724Z,13.07
2023-04-12T17:21:00.710Z,12.91
2023-04-12T17:26:04.573Z,12.85
2023-04-12T17:31:08.932Z,12.62
2023-04-12T17:36:12.164Z,12.50
2023-04-12T17:41:17.682Z,12.25
2023-04-12T17:46:20.565Z,12.07
2023-04-12T17:51:23.310Z,11.97
2023-04-12T17:56:26.383Z,11.75
2023-04-12T18:01:29.067Z,11.61
2023-04-12T18:06:32.567Z,11.52
2023-04-12T18:11:38.889Z,11.64
2023-04-12T18:16:41.991Z,11.43
2023-04-12T18:21:48.506Z,11.44
2023-04-12T18:26:51.266Z,11.38
2023-04-12T18:31:53.998Z,11.50
2023-04-12T18:36:56.990Z,11.61
2023-04-12T18:42:01.553Z,11.49
2023-04-12T18:47:04.510Z,11.42
2023-04-12T18:52:07.417Z,11.09
2023-04-12T18:57:10.760Z,11.13
2023-04-12T19:02:15.219Z,11.15
2023-04-12T19:07:18.040Z,11.13
2023-04-12T19:12:21.007Z,10.97
2023-04-12T19:17:27.813Z,10.88
2023-04-12T19:22:30.920Z,11.02
2023-04-12T19:27:39.227Z,11.05
2023-04-12T19:32:42.522Z,11.10
2023-04-12T19:37:45.471Z,11.06
2023-04-12T19:42:48.458Z,10.79
2023-04-12T19:47:51.360Z,10.88
2023-04-12T19:52:54.136Z,10.93
2023-04-12T19:57:56.962Z,10.83
2023-04-12T20:02:59.636Z,10.64
2023-04-12T20:08:02.302Z,10.78
2023-04-12T20:13:08.224Z,10.62
2023-04-12T20:18:13.013Z,10.72
2023-04-12T20:23:15.698Z,10.74
2023-04-12T20:28:18.623Z,10.80
2023-04-12T20:33:22.094Z,10.84
2023-04-12T20:38:26.559Z,10.73
2023-04-12T20:43:29.184Z,10.52
2023-04-12T20:48:32.247Z,10.47
2023-04-12T20:53:36.119Z,10.52
2023-04-12T20:58:39.091Z,10.63
2023-04-12T21:03:43.433Z,10.64
2023-04-12T21:08:47.562Z,10.76
2023-04-12T21:13:50.900Z,10.83
2023-04-12T21:18:53.793Z,10.71
2023-04-12T21:23:56.549Z,10.68
2023-04-12T21:28:59.518Z,10.58
2023-04-12T21:34:02.336Z,10.65
2023-04-12T21:39:04.983Z,10.60
2023-04-12T21:44:08.017Z,10.48
2023-04-12T21:49:10.814Z,10.54
2023-04-12T21:54:13.487Z,10.61
2023-04-12T21:59:16.651Z,10.59
2023-04-12T22:04:19.401Z,10.67
2023-04-12T22:09:22.174Z,10.53
2023-04-12T22:14:24.785Z,10.59
2023-04-12T22:19:27.617Z,10.81
2023-04-12T22:24:30.695Z,10.90
2023-04-12T22:29:34.366Z,10.83
2023-04-12T22:34:39.722Z,10.66
2023-04-12T22:39:42.888Z,10.71
2023-04-12T22:44:45.519Z,10.69
2023-04-12T22:49:51.091Z,10.55
2023-04-12T22:54:53.755Z,10.50
2023-04-12T22:59:57.856Z,10.52
2023-04-12T23:05:00.923Z,10.35
2023-04-12T23:10:03.983Z,10.34
2023-04-12T23:15:07.172Z,10.31
2023-04-12T23:20:13.440Z,10.29
2023-04-12T23:25:16.180Z,10.25
2023-04-12T23:30:20.389Z,10.19
2023-04-12T23:35:23.007Z,10.16
2023-04-12T23:40:25.717Z,9.99
2023-04-12T23:45:28.357Z,10.10
2023-04-12T23:50:30.984Z,10.05
2023-04-12T23:55:33.728Z,9.98
